Time;durP1;ratioP1;P1;durP2;ratioP2;P2;SDS_P1;SDS_P2;PMS_P1;PMS_P2;Temp;Humidity;BMP_temperature;BMP_pressure;BME280_temperature;BME280_humidity;BME280_pressure;Samples;Min_cycle;Max_cycle;Signal;HPM_P1;HPM_P2
2022/05/21 00:02:21;;;;;;;9.50;3.85;;;;;;;18.29;85.61;100252.00;5589134;31;34673;-69
2022/05/21 00:05:26;;;;;;;8.40;3.50;;;;;;;18.28;84.62;100256.53;5588327;31;35272;-69
2022/05/21 00:08:29;;;;;;;9.02;3.97;;;;;;;18.27;85.42;100249.50;5589096;31;33987;-69
2022/05/21 00:11:31;;;;;;;7.68;3.90;;;;;;;18.25;86.84;100246.22;5588984;31;34299;-69
2022/05/21 00:14:34;;;;;;;12.77;4.30;;;;;;;18.21;86.80;100247.69;5588924;31;34663;-69
2022/05/21 00:17:37;;;;;;;7.90;4.07;;;;;;;18.20;86.39;100240.72;5588799;31;34022;-69
2022/05/21 00:20:49;;;;;;;7.68;3.67;;;;;;;18.16;86.18;100234.94;5588972;31;33889;-69
2022/05/21 00:23:52;;;;;;;7.72;3.65;;;;;;;18.13;86.46;100240.75;5588883;31;33933;-69
2022/05/21 00:26:54;;;;;;;8.52;4.00;;;;;;;18.12;86.94;100236.44;5589075;31;33899;-69
2022/05/21 00:29:57;;;;;;;9.70;4.10;;;;;;;18.21;87.57;100231.59;5587700;31;34754;-69
2022/05/21 00:33:01;;;;;;;6.53;3.67;;;;;;;18.31;86.63;100221.16;5588641;31;33984;-68
2022/05/21 00:36:05;;;;;;;7.30;3.90;;;;;;;18.24;86.60;100237.37;5589816;31;34659;-69
2022/05/21 00:39:08;;;;;;;6.95;4.00;;;;;;;18.21;86.58;100228.91;5591382;31;33978;-69
2022/05/21 00:42:11;;;;;;;11.00;4.15;;;;;;;18.16;86.70;100223.37;5577064;31;32742;-69
2022/05/21 00:45:14;;;;;;;6.97;4.37;;;;;;;18.19;88.35;100221.09;5591104;31;34484;-69
2022/05/21 00:48:20;;;;;;;7.85;4.43;;;;;;;18.19;86.33;100199.63;5590565;31;34631;-69
2022/05/21 00:51:32;;;;;;;6.72;4.30;;;;;;;18.25;85.28;100208.62;5590144;31;34096;-69
2022/05/21 00:54:40;;;;;;;9.27;4.60;;;;;;;18.23;86.76;100216.09;5590931;31;35136;-69
2022/05/21 00:59:47;;;;;;;9.30;4.25;;;;;;;18.24;85.56;100226.63;5590195;31;32914;-69
2022/05/21 01:01:19;;;;;;;9.73;4.45;;;;;;;18.21;86.17;100235.09;5590910;31;34553;-69
2022/05/21 01:04:24;;;;;;;9.00;4.90;;;;;;;18.36;85.02;100225.88;5590858;31;34076;-69
2022/05/21 01:07:28;;;;;;;10.70;5.25;;;;;;;18.33;84.57;100227.16;5590103;31;35253;-69
2022/05/21 01:10:36;;;;;;;6.80;4.60;;;;;;;18.22;85.90;100243.97;5591122;31;34069;-69
2022/05/21 01:13:41;;;;;;;10.38;4.75;;;;;;;18.27;85.37;100233.41;5590841;31;34663;-69
2022/05/21 01:16:44;;;;;;;7.30;4.53;;;;;;;18.31;84.99;100245.34;5591224;31;34568;-69
2022/05/21 01:20:00;;;;;;;8.88;4.78;;;;;;;18.28;85.12;100235.06;5590646;31;33916;-69
2022/05/21 01:23:02;;;;;;;7.47;4.68;;;;;;;18.37;84.98;100236.41;5590052;31;33885;-69
2022/05/21 01:26:18;;;;;;;7.82;4.65;;;;;;;18.36;84.86;100240.13;5590961;31;34667;-69
2022/05/21 01:29:27;;;;;;;8.88;4.70;;;;;;;18.26;85.67;100242.50;5590313;31;33973;-69
2022/05/21 01:32:30;;;;;;;9.15;4.50;;;;;;;18.31;86.56;100226.53;5588825;31;32561;-69
2022/05/21 01:35:34;;;;;;;8.25;4.75;;;;;;;18.30;86.50;100242.91;5588771;31;33906;-69
2022/05/21 01:38:38;;;;;;;11.63;4.97;;;;;;;18.37;86.05;100232.91;5589679;31;34022;-69
2022/05/21 01:41:44;;;;;;;10.27;4.85;;;;;;;18.41;86.63;100223.34;5588913;31;33972;-69
2022/05/21 01:44:52;;;;;;;7.93;5.05;;;;;;;18.36;86.04;100221.31;5589375;31;35122;-69
2022/05/21 01:47:54;;;;;;;8.27;4.40;;;;;;;18.49;86.66;100217.69;5589085;31;34012;-68
2022/05/21 01:50:58;;;;;;;9.80;5.12;;;;;;;18.69;84.59;100228.25;5589354;31;33976;-68
2022/05/21 01:54:00;;;;;;;11.77;5.28;;;;;;;18.60;85.61;100254.59;5589345;31;34066;-69
2022/05/21 01:57:05;;;;;;;6.68;4.32;;;;;;;18.50;85.59;100247.00;5589672;31;33973;-69
2022/05/21 02:00:09;;;;;;;9.32;5.03;;;;;;;18.46;86.12;100267.31;5589192;31;34615;-69
2022/05/21 02:03:14;;;;;;;7.50;4.43;;;;;;;18.45;86.24;100286.31;5589156;31;34108;-68
2022/05/21 02:06:17;;;;;;;9.48;5.37;;;;;;;18.63;86.78;100337.44;5589194;31;34101;-69
2022/05/21 02:09:19;;;;;;;7.32;4.68;;;;;;;18.85;83.64;100341.34;5589490;31;33956;-69
2022/05/21 02:12:24;;;;;;;8.60;5.15;;;;;;;18.89;83.60;100355.16;5589095;31;33948;-69
2022/05/21 02:15:27;;;;;;;8.82;4.68;;;;;;;18.93;82.95;100359.88;5575491;31;32488;-69
2022/05/21 02:18:30;;;;;;;7.65;4.55;;;;;;;18.94;85.64;100384.88;5587900;31;33299;-68
2022/05/21 02:21:35;;;;;;;7.87;4.47;;;;;;;19.01;83.29;100394.56;5588312;31;34065;-67
2022/05/21 02:24:38;;;;;;;7.28;4.57;;;;;;;19.10;84.54;100395.06;5587786;31;33014;-69
2022/05/21 02:27:42;;;;;;;7.47;4.30;;;;;;;18.97;84.40;100382.59;5588823;31;34673;-67
2022/05/21 02:30:45;;;;;;;4.82;3.22;;;;;;;19.01;82.66;100397.25;5582561;31;240492;-69
2022/05/21 02:33:48;;;;;;;5.95;3.20;;;;;;;19.76;77.65;100391.62;5590035;31;34962;-68
2022/05/21 02:40:13;;;;;;;6.45;3.67;;;;;;;20.57;73.56;100383.00;5590109;31;34036;-69
2022/05/21 02:43:16;;;;;;;7.75;3.70;;;;;;;20.14;80.57;100397.50;5589976;31;33853;-69
2022/05/21 02:46:19;;;;;;;7.87;3.97;;;;;;;19.48;83.48;100406.47;5590019;31;34572;-68
2022/05/21 02:49:22;;;;;;;5.22;3.33;;;;;;;19.20;85.79;100413.37;5590050;31;33959;-68
2022/05/21 02:52:25;;;;;;;6.90;2.90;;;;;;;19.37;82.76;100409.87;5589917;31;33995;-68
2022/05/21 02:55:28;;;;;;;8.85;3.37;;;;;;;19.83;80.39;100403.13;5589708;31;33957;-68
2022/05/21 02:58:31;;;;;;;13.93;3.10;;;;;;;20.05;78.77;100423.13;5588983;31;34666;-67
2022/05/21 03:01:34;;;;;;;8.77;2.87;;;;;;;20.17;77.58;100412.41;5590132;31;34694;-68
2022/05/21 03:04:37;;;;;;;7.70;2.90;;;;;;;20.17;76.99;100429.38;5589007;31;33436;-66
2022/05/21 03:07:42;;;;;;;6.22;2.75;;;;;;;20.09;78.35;100440.47;5589122;31;32352;-68
2022/05/21 03:10:45;;;;;;;4.03;2.40;;;;;;;19.72;80.96;100420.88;5590026;31;34124;-68
2022/05/21 03:13:48;;;;;;;6.35;2.90;;;;;;;19.46;84.51;100435.47;5589686;31;34093;-68
2022/05/21 03:16:56;;;;;;;4.65;3.42;;;;;;;19.25;86.18;100446.66;5590021;31;34580;-67
2022/05/21 03:19:59;;;;;;;4.87;3.25;;;;;;;19.07;87.65;100460.87;5589495;31;34728;-67
2022/05/21 03:23:02;;;;;;;3.78;2.85;;;;;;;18.87;89.04;100444.13;5589049;31;34270;-67
2022/05/21 03:26:06;;;;;;;3.58;3.05;;;;;;;18.76;90.55;100441.31;5588688;31;32549;-68
2022/05/21 03:29:08;;;;;;;4.45;2.80;;;;;;;18.63;92.16;100437.69;5589509;31;34246;-67
2022/05/21 03:32:11;;;;;;;5.22;2.87;;;;;;;18.58;93.67;100436.72;5589576;31;33916;-66
2022/05/21 03:35:16;;;;;;;3.10;2.12;;;;;;;18.50;94.54;100405.50;5589465;31;34915;-68
2022/05/21 03:38:19;;;;;;;2.58;1.98;;;;;;;18.72;92.78;100405.16;5589517;31;33991;-67
2022/05/21 03:41:22;;;;;;;3.90;2.05;;;;;;;18.93;91.63;100399.37;5589506;31;34903;-68
2022/05/21 03:44:28;;;;;;;2.92;2.10;;;;;;;18.88;93.78;100380.44;5589414;31;34551;-69
2022/05/21 03:47:31;;;;;;;3.53;2.10;;;;;;;18.70;95.99;100383.06;5589752;31;34408;-68
2022/05/21 03:50:34;;;;;;;3.58;2.30;;;;;;;18.60;98.22;100370.94;5588695;31;34261;-68
2022/05/21 03:53:37;;;;;;;2.80;2.05;;;;;;;18.45;100.00;100374.97;5589383;31;35187;-68
2022/05/21 03:56:39;;;;;;;4.07;2.70;;;;;;;18.35;100.00;100378.12;5589306;31;33908;-68
2022/05/21 03:59:43;;;;;;;5.70;2.50;;;;;;;18.30;100.00;100358.38;5589204;31;34020;-68
2022/05/21 04:02:46;;;;;;;6.18;2.30;;;;;;;18.25;100.00;100350.94;5589186;31;34671;-68
2022/05/21 04:05:49;;;;;;;3.53;2.50;;;;;;;18.24;100.00;100317.09;5589379;31;34583;-69
2022/05/21 04:08:52;;;;;;;4.43;2.40;;;;;;;18.22;100.00;100303.06;5588900;31;33948;-68
2022/05/21 04:11:56;;;;;;;3.70;2.15;;;;;;;18.24;100.00;100293.75;5589103;31;34149;-69
2022/05/21 04:14:59;;;;;;;5.12;2.37;;;;;;;18.22;100.00;100282.41;5587959;31;33376;-69
2022/05/21 04:18:02;;;;;;;4.15;2.80;;;;;;;18.23;100.00;100285.91;5588995;31;34271;-69
2022/05/21 04:21:05;;;;;;;5.70;2.75;;;;;;;18.25;100.00;100300.75;5588949;31;34568;-69
2022/05/21 04:24:07;;;;;;;8.88;2.75;;;;;;;18.30;100.00;100312.72;5588854;31;33962;-69
2022/05/21 04:27:10;;;;;;;3.45;2.20;;;;;;;18.43;100.00;100301.84;5588699;31;34039;-70
2022/05/21 04:30:35;;;;;;;2.45;1.77;;;;;;;18.42;100.00;100295.66;5588463;31;34187;-69
2022/05/21 04:33:38;;;;;;;4.90;2.12;;;;;;;18.48;100.00;100291.25;5588554;31;34610;-70
2022/05/21 04:36:43;;;;;;;3.50;1.92;;;;;;;18.48;100.00;100291.25;5588500;31;34792;-70
2022/05/21 04:39:46;;;;;;;3.47;1.90;;;;;;;18.53;100.00;100280.69;5587495;31;33317;-69
2022/05/21 04:42:50;;;;;;;4.10;2.12;;;;;;;18.35;100.00;100286.03;5588405;31;33935;-70
2022/05/21 04:45:55;;;;;;;3.75;2.17;;;;;;;18.42;100.00;100267.97;5587624;31;33954;-70
2022/05/21 04:48:59;;;;;;;3.62;2.10;;;;;;;18.22;100.00;100263.59;5588447;31;34548;-70
2022/05/21 04:52:06;;;;;;;3.50;2.17;;;;;;;18.08;100.00;100254.03;5588523;31;33948;-69
2022/05/21 04:55:10;;;;;;;4.55;2.22;;;;;;;17.93;100.00;100275.00;5588500;31;34338;-69
2022/05/21 04:58:14;;;;;;;3.12;2.10;;;;;;;17.85;100.00;100304.78;5588527;31;34243;-69
2022/05/21 05:01:16;;;;;;;3.90;2.40;;;;;;;17.78;100.00;100347.75;5587386;31;34570;-70
2022/05/21 05:04:19;;;;;;;3.42;2.22;;;;;;;17.72;100.00;100363.88;5587389;31;33986;-70
2022/05/21 05:07:23;;;;;;;4.45;2.50;;;;;;;17.56;100.00;100362.50;5587844;31;35470;-70
2022/05/21 05:10:26;;;;;;;3.42;2.30;;;;;;;17.51;100.00;100381.09;5588252;31;34695;-70
2022/05/21 05:13:29;;;;;;;5.45;2.95;;;;;;;17.42;100.00;100395.78;5587905;31;35322;-70
2022/05/21 05:16:32;;;;;;;4.18;2.67;;;;;;;17.31;100.00;100396.44;5586979;31;34256;-70
2022/05/21 05:19:37;;;;;;;10.10;3.28;;;;;;;17.37;100.00;100390.25;5586907;31;34423;-70
2022/05/21 05:22:39;;;;;;;3.92;2.78;;;;;;;17.48;100.00;100391.41;5588888;31;32374;-70
2022/05/21 05:25:43;;;;;;;5.10;2.60;;;;;;;17.67;100.00;100401.28;5589965;31;34740;-72
2022/05/21 05:28:46;;;;;;;4.28;3.03;;;;;;;17.79;100.00;100389.66;5576234;31;32835;-71
2022/05/21 05:31:48;;;;;;;3.33;2.20;;;;;;;17.98;100.00;100406.69;5590334;31;33917;-71
2022/05/21 05:34:51;;;;;;;3.22;2.53;;;;;;;18.13;100.00;100403.72;5589344;31;33464;-70
2022/05/21 05:37:54;;;;;;;4.25;1.50;;;;;;;18.38;100.00;100401.06;5590664;31;34184;-71
2022/05/21 05:40:57;;;;;;;2.72;1.70;;;;;;;18.81;100.00;100404.66;5590440;31;34036;-71
2022/05/21 05:44:00;;;;;;;3.75;1.40;;;;;;;19.23;99.49;100413.75;5576374;31;34478;-70
2022/05/21 05:47:02;;;;;;;1.65;1.10;;;;;;;19.49;98.27;100418.88;5589828;31;32489;-69
2022/05/21 05:50:06;;;;;;;3.58;1.45;;;;;;;19.58;94.32;100379.03;5590387;31;33951;-69
2022/05/21 05:53:09;;;;;;;3.33;1.60;;;;;;;19.62;94.26;100356.00;5590460;31;35206;-71
2022/05/21 05:56:12;;;;;;;6.22;1.60;;;;;;;19.58;95.92;100364.75;5590432;31;34020;-68
2022/05/21 06:05:58;;;;;;;3.87;1.55;;;;;;;19.22;99.83;100333.31;5590586;31;33993;-69
2022/05/21 06:09:00;;;;;;;2.70;1.25;;;;;;;19.17;99.65;100343.91;5590178;31;34149;-69
2022/05/21 06:12:03;;;;;;;3.45;1.30;;;;;;;19.20;98.28;100346.16;5590565;31;34571;-68
2022/05/21 06:15:07;;;;;;;5.10;1.40;;;;;;;19.10;99.03;100331.38;5589595;31;33193;-68
2022/05/21 06:18:16;;;;;;;2.58;1.27;;;;;;;18.99;99.62;100347.41;5589788;31;32434;-70
2022/05/21 06:21:19;;;;;;;1.65;1.05;;;;;;;19.10;99.39;100341.28;5588911;31;34005;-68
2022/05/21 06:24:22;;;;;;;2.28;1.20;;;;;;;19.16;94.08;100343.09;5590208;31;34361;-69
2022/05/21 06:27:24;;;;;;;3.42;1.23;;;;;;;19.11;96.09;100340.25;5589350;31;33913;-69
2022/05/21 06:30:30;;;;;;;4.55;1.37;;;;;;;18.88;99.22;100342.78;5589901;31;33862;-71
2022/05/21 06:33:33;;;;;;;2.58;1.20;;;;;;;18.59;100.00;100344.28;5588968;31;34055;-71
2022/05/21 06:36:37;;;;;;;3.47;1.37;;;;;;;18.45;100.00;100348.94;5589308;31;34318;-71
2022/05/21 06:39:42;;;;;;;3.20;1.80;;;;;;;18.27;100.00;100356.94;5589320;31;32816;-74
2022/05/21 06:42:46;;;;;;;7.40;1.80;;;;;;;18.06;100.00;100351.91;5589795;31;34016;-72
2022/05/21 06:45:49;;;;;;;5.10;1.70;;;;;;;17.76;100.00;100354.41;5589960;31;34668;-72
2022/05/21 06:48:52;;;;;;;5.50;2.08;;;;;;;17.61;100.00;100351.16;5575947;31;33204;-72
2022/05/21 06:51:56;;;;;;;7.30;2.78;;;;;;;17.57;100.00;100350.72;5588817;31;33086;-71
2022/05/21 06:55:00;;;;;;;4.45;2.65;;;;;;;17.59;100.00;100347.88;5589789;31;34075;-71
2022/05/21 06:58:02;;;;;;;6.20;2.92;;;;;;;17.61;100.00;100357.34;5575472;31;31882;-71
2022/05/21 07:01:05;;;;;;;5.75;2.87;;;;;;;17.72;100.00;100362.03;5590039;31;34479;-72
2022/05/21 07:04:09;;;;;;;4.85;2.50;;;;;;;17.88;100.00;100363.38;5589729;31;34014;-72
2022/05/21 07:10:33;;;;;;;5.90;2.28;;;;;;;18.33;100.00;100366.81;5588825;31;33493;-73
2022/05/21 07:13:36;;;;;;;4.72;2.60;;;;;;;18.58;100.00;100374.91;5590113;31;33921;-71
2022/05/21 07:16:39;;;;;;;3.62;1.95;;;;;;;18.81;100.00;100375.09;5589068;31;32505;-71
2022/05/21 07:19:42;;;;;;;2.35;1.90;;;;;;;18.89;100.00;100371.28;5589000;31;33278;-71
2022/05/21 07:22:47;;;;;;;4.53;2.00;;;;;;;18.67;100.00;100377.09;5588454;31;33970;-70
2022/05/21 07:25:50;;;;;;;3.08;2.00;;;;;;;19.00;100.00;100378.63;5588593;31;33422;-71
2022/05/21 07:28:52;;;;;;;4.53;2.00;;;;;;;19.06;100.00;100377.75;5575797;31;32449;-72
2022/05/21 07:31:55;;;;;;;3.45;2.20;;;;;;;19.18;100.00;100375.13;5589582;31;34531;-71
2022/05/21 07:35:11;;;;;;;5.12;1.73;;;;;;;19.48;100.00;100374.19;5589600;31;34024;-70
2022/05/21 07:38:20;;;;;;;5.30;1.95;;;;;;;20.35;100.00;100369.25;5588641;31;32711;-71
2022/05/21 07:41:23;;;;;;;11.15;2.17;;;;;;;20.83;99.83;100369.06;5588852;31;33953;-71
2022/05/21 07:44:26;;;;;;;5.07;1.90;;;;;;;21.06;98.12;100365.50;5589257;31;34749;-71
2022/05/21 07:47:29;;;;;;;4.15;1.77;;;;;;;21.58;92.65;100361.81;5589269;31;33993;-70
2022/05/21 07:50:31;;;;;;;3.12;1.45;;;;;;;21.70;90.17;100350.94;5588898;31;32385;-69
2022/05/21 07:53:38;;;;;;;2.05;1.50;;;;;;;21.84;89.16;100359.56;5589398;31;34707;-70
2022/05/21 07:56:40;;;;;;;4.00;1.87;;;;;;;21.96;88.12;100363.09;5588681;31;33011;-70
2022/05/21 07:59:43;;;;;;;3.30;1.60;;;;;;;21.84;87.93;100368.50;5589198;31;34056;-69
2022/05/21 08:02:46;;;;;;;1.98;1.45;;;;;;;21.79;85.55;100375.69;5588041;31;32546;-71
2022/05/21 08:05:50;;;;;;;3.42;1.45;;;;;;;22.09;83.80;100370.88;5588532;31;32690;-69
2022/05/21 08:08:54;;;;;;;2.47;1.58;;;;;;;22.16;82.44;100366.16;5589430;31;34615;-71
2022/05/21 08:11:57;;;;;;;2.28;1.60;;;;;;;22.21;83.05;100385.16;5588397;31;33525;-70
2022/05/21 08:14:59;;;;;;;1.37;1.23;;;;;;;22.26;80.81;100387.13;5588374;31;32408;-71
2022/05/21 08:18:04;;;;;;;2.20;1.50;;;;;;;22.18;82.23;100392.91;5588461;31;32452;-70
2022/05/21 08:21:07;;;;;;;5.55;2.10;;;;;;;22.06;81.52;100382.19;5588971;31;33990;-69
2022/05/21 08:27:32;;;;;;;3.10;1.80;;;;;;;22.75;79.49;100390.94;5587939;31;33225;-69
2022/05/21 08:30:36;;;;;;;6.95;1.95;;;;;;;22.39;79.14;100386.78;5587816;31;33396;-70
2022/05/21 08:33:38;;;;;;;2.40;1.58;;;;;;;22.21;80.98;100393.25;5587780;31;33972;-68
2022/05/21 08:36:41;;;;;;;6.28;1.90;;;;;;;22.15;81.45;100407.72;5587662;31;33081;-70
2022/05/21 08:39:44;;;;;;;7.82;1.80;;;;;;;22.02;81.17;100391.84;5587816;31;33985;-70
2022/05/21 08:42:55;;;;;;;3.28;1.83;;;;;;;22.05;80.50;100394.84;5588126;31;34752;-68
2022/05/21 08:46:00;;;;;;;3.08;1.70;;;;;;;21.97;80.96;100394.44;5586803;31;32724;-68
2022/05/21 08:49:15;;;;;;;4.85;2.22;;;;;;;21.86;82.01;100381.75;5587008;31;33013;-69
2022/05/21 08:52:30;;;;;;;3.95;2.00;;;;;;;21.99;82.13;100385.00;5587756;31;33945;-67
2022/05/21 08:55:39;;;;;;;3.92;2.30;;;;;;;22.05;81.31;100400.25;5587440;31;34637;-67
2022/05/21 08:58:52;;;;;;;2.35;2.10;;;;;;;21.95;82.91;100383.03;5576608;31;34038;-68
2022/05/21 09:01:55;;;;;;;2.42;1.80;;;;;;;21.63;84.43;100388.09;5590419;31;34025;-68
2022/05/21 09:05:06;;;;;;;3.58;2.10;;;;;;;22.46;80.82;100390.19;5590975;31;34061;-67
2022/05/21 09:08:47;;;;;;;5.53;1.98;;;;;;;24.65;70.35;100385.31;5576967;31;33131;-69
2022/05/21 09:12:18;;;;;;;3.50;1.98;;;;;;;26.11;63.44;100389.00;5578066;31;34269;-68
2022/05/21 09:18:49;;;;;;;2.80;2.00;;;;;;;27.20;57.65;100389.28;5589072;31;33343;-69
2022/05/21 09:22:00;;;;;;;3.50;2.00;;;;;;;26.20;61.19;100398.25;5575975;31;32553;-69
2022/05/21 09:25:18;;;;;;;3.72;1.85;;;;;;;27.47;56.77;100397.06;5590153;31;35263;-68
2022/05/21 09:28:22;;;;;;;2.08;1.48;;;;;;;26.10;57.83;100395.53;5589305;31;32460;-68
2022/05/21 09:31:31;;;;;;;4.30;1.58;;;;;;;26.97;55.13;100386.31;5589333;31;33094;-70
2022/05/21 09:34:36;;;;;;;5.75;1.70;;;;;;;26.72;53.78;100390.69;5589573;31;32087;-68
2022/05/21 09:37:41;;;;;;;3.90;1.90;;;;;;;26.68;55.57;100392.31;5589753;31;34572;-68
2022/05/21 09:40:43;;;;;;;6.10;1.95;;;;;;;26.89;54.73;100374.09;5590253;31;33948;-71
2022/05/21 09:47:39;;;;;;;3.40;1.90;;;;;;;25.78;57.22;100391.12;5588763;31;33994;-68
2022/05/21 09:50:54;;;;;;;7.35;2.00;;;;;;;25.64;58.42;100373.69;5589504;31;33156;-69
2022/05/21 09:53:59;;;;;;;2.60;1.70;;;;;;;26.24;56.55;100378.44;5589748;31;32494;-69
2022/05/21 09:57:02;;;;;;;4.50;1.85;;;;;;;26.97;52.84;100398.03;5590691;31;35171;-69
2022/05/21 10:00:32;;;;;;;3.37;1.50;;;;;;;27.09;52.87;100397.75;5590219;31;34679;-69
2022/05/21 10:03:41;;;;;;;2.15;1.20;;;;;;;27.96;48.87;100385.41;5582176;31;32898;-68
2022/05/21 10:06:49;;;;;;;4.00;1.50;;;;;;;27.69;44.33;100388.56;5589180;31;32343;-69
2022/05/21 10:13:20;;;;;;;1.37;1.02;;;;;;;28.96;42.43;100402.09;5589398;31;32573;-70
2022/05/21 10:16:46;;;;;;;1.92;1.12;;;;;;;29.09;40.29;100382.31;5577308;31;32349;-70
2022/05/21 10:19:57;;;;;;;1.70;1.23;;;;;;;29.04;40.69;100384.28;5588806;31;32733;-70
2022/05/21 10:23:15;;;;;;;1.90;0.95;;;;;;;30.14;38.16;100390.25;5588797;31;34153;-70
2022/05/21 10:26:47;;;;;;;1.90;1.00;;;;;;;30.63;35.16;100402.63;5589192;31;34539;-69
2022/05/21 10:29:57;;;;;;;2.40;1.10;;;;;;;29.32;37.56;100400.63;5576116;31;33289;-68
2022/05/21 10:33:24;;;;;;;1.65;0.90;;;;;;;29.68;36.45;100401.00;5588911;31;33204;-69
2022/05/21 10:36:55;;;;;;;2.35;0.88;;;;;;;30.71;35.21;100393.72;5589014;31;33206;-69
2022/05/21 10:40:10;;;;;;;3.62;0.85;;;;;;;29.97;36.27;100391.88;5589674;31;34099;-68
2022/05/21 10:43:38;;;;;;;1.15;0.68;;;;;;;30.46;33.78;100405.91;5589670;31;34579;-68
2022/05/21 10:47:04;;;;;;;3.73;0.73;;;;;;;30.85;30.14;100400.03;5589257;31;32977;-68
2022/05/21 10:50:14;;;;;;;5.55;0.90;;;;;;;32.06;27.82;100404.19;5589050;31;33309;-69
2022/05/21 10:53:38;;;;;;;1.45;0.70;;;;;;;31.74;26.21;100411.50;5588707;31;32651;-69
2022/05/21 10:57:02;;;;;;;2.25;0.70;;;;;;;30.57;29.24;100406.56;5589147;31;32423;-68
2022/05/21 11:00:18;;;;;;;1.90;0.70;;;;;;;31.48;29.08;100397.47;5588892;31;32385;-69
2022/05/21 11:03:24;;;;;;;1.30;0.70;;;;;;;31.90;28.96;100409.22;5589687;31;33949;-69
2022/05/21 11:06:39;;;;;;;2.58;0.77;;;;;;;30.24;31.67;100392.03;5589457;31;34178;-69
2022/05/21 11:09:50;;;;;;;1.23;0.70;;;;;;;31.16;30.96;100407.72;5588731;31;32880;-67
2022/05/21 11:13:02;;;;;;;1.60;0.90;;;;;;;31.76;29.65;100401.00;5589171;31;33278;-69
2022/05/21 11:16:20;;;;;;;2.03;0.80;;;;;;;30.53;31.99;100406.37;5589057;31;33411;-68
2022/05/21 11:19:34;;;;;;;6.40;0.88;;;;;;;30.35;31.79;100390.75;5574867;31;32976;-67
2022/05/21 11:22:47;;;;;;;3.92;0.70;;;;;;;31.35;29.10;100384.59;5588814;31;33648;-69
2022/05/21 11:25:58;;;;;;;3.72;0.73;;;;;;;30.28;30.17;100375.81;5575787;31;33504;-69
2022/05/21 11:29:29;;;;;;;1.70;0.70;;;;;;;30.74;28.97;100375.91;5588204;31;33567;-69
2022/05/21 11:39:21;;;;;;;2.40;1.17;;;;;;;30.57;28.15;100365.50;5589425;31;34315;-69
2022/05/21 11:42:28;;;;;;;1.33;0.75;;;;;;;30.76;28.31;100379.13;5588653;31;33264;-69
2022/05/21 11:45:31;;;;;;;2.20;1.10;;;;;;;31.91;27.08;100389.69;5575718;31;33584;-69
2022/05/21 11:48:34;;;;;;;2.30;0.98;;;;;;;30.40;29.16;100367.97;5589194;31;33969;-68
2022/05/21 11:51:36;;;;;;;6.47;1.02;;;;;;;30.88;28.84;100372.06;5588416;31;32322;-68
2022/05/21 11:54:45;;;;;;;1.58;1.10;;;;;;;31.61;28.37;100371.19;5588271;31;34104;-69
2022/05/21 11:57:53;;;;;;;6.00;1.00;;;;;;;30.29;30.91;100370.06;5588380;31;33661;-70
2022/05/21 12:00:56;;;;;;;1.87;1.03;;;;;;;32.94;27.96;100367.66;5589364;31;34333;-68
2022/05/21 12:03:59;;;;;;;6.40;1.00;;;;;;;34.23;25.89;100367.97;5589176;31;34071;-69
2022/05/21 12:07:05;;;;;;;1.80;0.90;;;;;;;32.11;28.32;100369.22;5588199;31;33319;-70
2022/05/21 12:10:29;;;;;;;2.15;0.85;;;;;;;32.33;28.58;100365.69;5588342;31;33952;-68
2022/05/21 12:13:35;;;;;;;4.00;1.10;;;;;;;33.97;26.68;100378.16;5588779;31;35337;-68
2022/05/21 12:16:38;;;;;;;1.95;1.00;;;;;;;31.95;28.85;100367.94;5588396;31;33328;-69
2022/05/21 12:19:44;;;;;;;2.12;1.10;;;;;;;33.13;28.16;100365.47;5575344;31;32433;-69
2022/05/21 12:22:50;;;;;;;2.12;1.15;;;;;;;33.54;27.88;100359.66;5588134;31;33197;-67
2022/05/21 12:25:56;;;;;;;4.00;1.10;;;;;;;32.09;30.08;100374.19;5588788;31;35173;-68
2022/05/21 12:29:16;;;;;;;3.00;1.12;;;;;;;32.52;29.39;100365.47;5588586;31;34100;-69
2022/05/21 12:32:27;;;;;;;2.00;1.20;;;;;;;33.43;28.43;100358.31;5591381;31;35190;-67
2022/05/21 12:35:30;;;;;;;4.20;1.10;;;;;;;32.45;29.28;100360.44;5590920;31;33951;-67
2022/05/21 12:38:37;;;;;;;2.70;1.55;;;;;;;31.95;29.27;100361.66;5590861;31;33877;-67
2022/05/21 12:41:45;;;;;;;3.67;1.00;;;;;;;30.92;30.62;100359.37;5591016;31;34017;-68
2022/05/21 12:44:48;;;;;;;1.58;0.90;;;;;;;30.82;31.06;100358.75;5590113;31;33370;-68
2022/05/21 12:48:02;;;;;;;1.83;1.15;;;;;;;32.62;28.55;100348.75;5590854;31;33892;-68
2022/05/21 12:51:10;;;;;;;1.55;1.10;;;;;;;34.13;26.79;100356.47;5590287;31;33049;-69
2022/05/21 12:54:33;;;;;;;1.08;0.98;;;;;;;31.86;29.70;100339.59;5590047;31;32525;-68
2022/05/21 12:57:35;;;;;;;3.28;1.20;;;;;;;31.09;31.86;100336.88;5590138;31;32551;-68
2022/05/21 13:00:52;;;;;;;3.70;1.15;;;;;;;33.58;28.28;100335.06;5590741;31;34230;-69
2022/05/21 13:03:55;;;;;;;5.87;1.10;;;;;;;32.18;31.06;100331.19;5590165;31;33232;-69
2022/05/21 13:07:35;;;;;;;1.87;0.93;;;;;;;33.80;27.58;100331.34;5590258;31;32414;-68
2022/05/21 13:10:49;;;;;;;5.12;1.10;;;;;;;34.14;26.23;100327.78;5587019;31;32524;-69
2022/05/21 13:14:00;;;;;;;1.10;0.90;;;;;;;35.00;24.92;100338.63;5590749;31;34657;-68
2022/05/21 13:17:04;;;;;;;3.83;0.90;;;;;;;33.55;26.37;100344.75;5589860;31;32386;-68
2022/05/21 13:20:25;;;;;;;1.12;0.68;;;;;;;33.34;26.21;100329.19;5589826;31;32597;-68
2022/05/21 13:23:47;;;;;;;1.23;0.77;;;;;;;34.82;23.84;100341.44;5589475;31;32850;-69
2022/05/21 13:27:06;;;;;;;3.15;0.93;;;;;;;31.87;26.78;100339.31;5589110;31;33226;-69
2022/05/21 13:30:14;;;;;;;2.25;0.90;;;;;;;34.25;24.61;100335.41;5589484;31;32862;-67
2022/05/21 13:33:45;;;;;;;0.90;0.60;;;;;;;34.89;23.09;100341.75;5590225;31;34262;-68
2022/05/21 13:36:53;;;;;;;6.43;0.95;;;;;;;33.57;23.25;100330.66;5590632;31;34512;-68
2022/05/21 13:40:02;;;;;;;;;;;;;;;32.93;23.97;100344.06;5589931;31;32509;-68
2022/05/21 13:43:07;;;;;;;1.75;1.00;;;;;;;33.47;23.53;100341.97;5589030;31;34217;-67
2022/05/21 13:46:12;;;;;;;1.85;1.15;;;;;;;32.92;23.56;100330.66;5589800;31;32816;-68
2022/05/21 13:49:35;;;;;;;1.17;0.70;;;;;;;34.04;22.02;100339.94;5590594;31;34679;-67
2022/05/21 13:52:39;;;;;;;1.55;0.80;;;;;;;32.13;24.14;100341.47;5589521;31;33915;-68
2022/05/21 13:56:27;;;;;;;2.40;0.95;;;;;;;32.43;23.77;100327.00;5590191;31;34523;-69
2022/05/21 13:59:31;;;;;;;2.28;0.80;;;;;;;31.56;23.97;100308.22;5563648;31;33332;-68
2022/05/21 14:02:40;;;;;;;2.00;0.80;;;;;;;31.24;23.93;100325.59;5589984;31;33978;-69
2022/05/21 14:05:51;;;;;;;1.12;0.70;;;;;;;32.18;22.72;100317.47;5588860;31;33559;-68
2022/05/21 14:09:01;;;;;;;2.15;0.70;;;;;;;33.21;20.89;100303.44;5589598;31;32665;-67
2022/05/21 14:12:12;;;;;;;1.98;0.65;;;;;;;34.54;17.67;100320.94;5589508;31;33163;-68
2022/05/21 14:15:24;;;;;;;3.70;0.70;;;;;;;33.30;19.46;100312.53;5590183;31;34641;-67
2022/05/21 14:18:41;;;;;;;3.12;0.77;;;;;;;31.14;21.66;100305.81;5589083;31;33305;-68
2022/05/21 14:22:21;;;;;;;1.92;0.80;;;;;;;27.97;25.43;100288.84;5589439;31;32755;-67
2022/05/21 14:25:28;;;;;;;3.30;0.90;;;;;;;28.12;26.50;100302.41;5549074;31;32501;-67
2022/05/21 14:28:31;;;;;;;5.22;0.88;;;;;;;29.01;24.62;100281.03;5589722;31;34645;-68
2022/05/21 14:31:37;;;;;;;1.87;0.80;;;;;;;30.21;23.78;100285.88;5589648;31;34194;-67
2022/05/21 14:34:40;;;;;;;4.00;1.00;;;;;;;30.24;23.45;100285.28;5589280;31;32587;-67
2022/05/21 14:37:45;;;;;;;0.77;0.60;;;;;;;29.37;24.53;100274.03;5589831;31;34576;-67
2022/05/21 14:40:52;;;;;;;1.62;0.60;;;;;;;29.58;24.33;100277.31;5588833;31;32468;-68
2022/05/21 14:43:55;;;;;;;2.78;0.60;;;;;;;29.20;24.84;100281.88;5589179;31;34675;-67
2022/05/21 14:53:48;;;;;;;0.85;0.55;;;;;;;30.75;22.76;100270.66;5588653;31;34008;-67
2022/05/21 14:56:50;;;;;;;1.65;0.70;;;;;;;30.53;23.38;100266.72;5588949;31;33214;-69
2022/05/21 14:59:53;;;;;;;1.60;0.62;;;;;;;31.96;22.55;100272.69;5588667;31;33614;-68
2022/05/21 15:02:57;;;;;;;5.00;0.70;;;;;;;31.63;22.62;100272.94;5589514;31;33988;-69
2022/05/21 15:06:00;;;;;;;2.35;0.75;;;;;;;30.50;24.37;100261.06;5588699;31;32410;-69
2022/05/21 15:09:03;;;;;;;1.23;0.65;;;;;;;30.15;25.21;100259.72;5589355;31;34056;-68
2022/05/21 15:12:07;;;;;;;1.33;0.77;;;;;;;30.32;25.10;100248.19;5589576;31;34077;-68